Time;durP1;ratioP1;P1;durP2;ratioP2;P2;SDS_P1;SDS_P2;PMS_P1;PMS_P2;Temp;Humidity;BMP_temperature;BMP_pressure;BME280_temperature;BME280_humidity;BME280_pressure;Samples;Min_cycle;Max_cycle;Signal;HPM_P1;HPM_P2
2023/03/16 00:00:30;;;;;;;5.93;1.40;;;;;;;-0.74;76.26;100337.00;10478282;28;20049;-77
2023/03/16 00:05:33;;;;;;;2.47;1.27;;;;;;;-0.81;76.62;100355.91;10477739;28;20049;-77
2023/03/16 00:10:35;;;;;;;2.40;1.00;;;;;;;-0.83;77.15;100355.28;10485411;28;20064;-78
2023/03/16 00:15:37;;;;;;;1.70;0.70;;;;;;;-0.88;77.27;100365.03;10525922;28;20493;-78
2023/03/16 00:20:40;;;;;;;1.27;0.70;;;;;;;-0.91;77.14;100374.38;10516234;28;20041;-78
2023/03/16 00:25:42;;;;;;;4.25;0.80;;;;;;;-0.94;77.74;100391.78;10517149;28;20457;-76
2023/03/16 00:30:46;;;;;;;1.73;0.88;;;;;;;-0.97;78.04;100392.22;10512860;28;20067;-76
2023/03/16 00:36:00;;;;;;;3.13;0.95;;;;;;;-0.98;78.41;100385.16;10508626;28;20049;-77
2023/03/16 00:41:04;;;;;;;2.05;0.73;;;;;;;-0.99;78.51;100398.84;10522801;28;20048;-77
2023/03/16 00:46:15;;;;;;;1.15;0.80;;;;;;;-1.00;78.43;100400.72;10518730;28;20533;-77
2023/03/16 00:51:18;;;;;;;1.23;0.70;;;;;;;-0.97;79.28;100413.75;10525765;28;20674;-77
2023/03/16 00:56:20;;;;;;;1.35;0.70;;;;;;;-0.92;79.11;100415.81;10498545;28;20044;-78
2023/03/16 01:01:23;;;;;;;0.95;0.75;;;;;;;-0.88;79.29;100430.50;10507182;28;20040;-76
2023/03/16 01:06:25;;;;;;;1.45;0.80;;;;;;;-0.83;79.25;100424.50;10516809;28;20045;-76
2023/03/16 01:11:27;;;;;;;2.83;0.60;;;;;;;-0.84;79.74;100430.94;10518501;28;20051;-77
2023/03/16 01:16:32;;;;;;;2.05;0.93;;;;;;;-0.84;79.62;100433.63;10525842;28;20611;-77
2023/03/16 01:21:37;;;;;;;2.15;0.60;;;;;;;-0.85;79.90;100431.97;10508442;28;20036;-77
2023/03/16 01:26:39;;;;;;;1.85;0.90;;;;;;;-0.92;80.06;100438.19;10502356;28;20052;-77
2023/03/16 01:31:41;;;;;;;2.47;0.70;;;;;;;-0.95;80.13;100444.00;10523569;28;20037;-77
2023/03/16 01:36:46;;;;;;;3.72;0.95;;;;;;;-1.07;80.43;100445.66;10524004;28;20075;-78
2023/03/16 01:41:49;;;;;;;2.33;0.90;;;;;;;-1.11;80.63;100455.22;10492134;28;20051;-78
2023/03/16 01:46:51;;;;;;;1.83;1.10;;;;;;;-1.15;81.30;100464.75;10491223;28;20075;-76
2023/03/16 01:51:59;;;;;;;3.42;1.23;;;;;;;-1.15;81.44;100470.13;10509929;28;20037;-77
2023/03/16 01:57:14;;;;;;;2.55;0.75;;;;;;;-1.12;82.08;100475.09;10491898;28;20055;-77
2023/03/16 02:02:19;;;;;;;2.28;0.82;;;;;;;-1.10;82.08;100481.09;10497536;28;20048;-78
2023/03/16 02:07:23;;;;;;;0.77;0.70;;;;;;;-1.12;82.39;100485.84;10516271;28;20522;-78
2023/03/16 02:12:28;;;;;;;2.65;1.00;;;;;;;-1.16;82.62;100498.09;10504128;28;20303;-77
2023/03/16 02:17:33;;;;;;;3.33;1.00;;;;;;;-1.14;82.95;100503.25;10495357;28;20063;-77
2023/03/16 02:22:42;;;;;;;;;;;;;;;-1.13;82.54;100521.06;10501361;28;20037;-76
2023/03/16 02:28:18;;;;;;;2.95;0.85;;;;;;;-1.12;83.32;100526.25;10500178;28;20357;-77
2023/03/16 02:33:21;;;;;;;3.33;1.00;;;;;;;-1.10;83.54;100526.03;10486774;28;20041;-78
2023/03/16 02:38:25;;;;;;;2.83;0.90;;;;;;;-1.08;83.62;100532.03;10520467;28;20044;-77
2023/03/16 02:43:32;;;;;;;1.63;1.05;;;;;;;-1.11;83.92;100535.16;10491120;28;20040;-78
2023/03/16 02:49:04;;;;;;;1.33;0.70;;;;;;;-1.06;83.86;100536.19;10508400;28;20049;-77
2023/03/16 02:54:07;;;;;;;2.42;0.77;;;;;;;-1.04;84.41;100538.66;10489724;28;20036;-76
2023/03/16 02:59:11;;;;;;;2.97;1.20;;;;;;;-1.08;84.04;100554.41;10506035;28;20047;-77
2023/03/16 03:04:13;;;;;;;2.42;0.80;;;;;;;-1.09;84.17;100547.38;10504610;28;20049;-78
2023/03/16 03:09:17;;;;;;;1.90;1.00;;;;;;;-1.10;84.31;100558.34;10499285;28;20438;-77
2023/03/16 03:14:20;;;;;;;3.38;0.90;;;;;;;-1.09;84.57;100560.84;10519670;28;20036;-78
2023/03/16 03:19:24;;;;;;;2.70;0.90;;;;;;;-1.07;84.63;100561.44;10491041;28;20532;-77
2023/03/16 03:24:27;;;;;;;2.13;0.80;;;;;;;-1.04;85.03;100568.28;10482937;28;20071;-78
2023/03/16 03:29:33;;;;;;;4.22;1.15;;;;;;;-1.10;84.84;100569.94;10480834;28;20044;-77
2023/03/16 03:34:36;;;;;;;1.83;1.00;;;;;;;-1.11;85.05;100573.69;10543288;28;20036;-77
2023/03/16 03:39:40;;;;;;;2.83;1.00;;;;;;;-1.15;85.21;100582.38;10488645;28;20040;-78
2023/03/16 03:44:43;;;;;;;3.78;1.15;;;;;;;-1.23;85.45;100586.91;10526638;28;20056;-78
2023/03/16 03:49:45;;;;;;;1.95;0.70;;;;;;;-1.28;85.68;100588.56;10497506;28;20040;-77
2023/03/16 03:54:48;;;;;;;2.58;0.73;;;;;;;-1.30;85.82;100587.94;10491736;28;20048;-78
2023/03/16 03:59:52;;;;;;;3.42;0.65;;;;;;;-1.21;86.33;100594.81;10514744;28;20036;-76
2023/03/16 04:05:14;;;;;;;3.78;1.13;;;;;;;-1.20;86.22;100604.53;10492888;28;20043;-77
2023/03/16 04:10:17;;;;;;;0.80;0.80;;;;;;;-1.26;86.45;100599.97;10500091;28;20048;-78
2023/03/16 04:15:21;;;;;;;1.33;0.80;;;;;;;-1.32;86.80;100609.69;10490666;28;20510;-77
2023/03/16 04:20:51;;;;;;;1.42;0.60;;;;;;;-1.31;86.70;100627.50;10505375;28;20059;-77
2023/03/16 04:25:56;;;;;;;1.67;0.45;;;;;;;-1.26;87.11;100629.56;10492891;28;20071;-78
2023/03/16 04:31:06;;;;;;;1.02;0.95;;;;;;;-1.33;87.26;100639.50;10513586;28;20045;-77
2023/03/16 04:36:13;;;;;;;2.72;0.80;;;;;;;-1.47;87.43;100644.03;10510571;28;20040;-78
2023/03/16 04:41:17;;;;;;;1.20;0.73;;;;;;;-1.46;87.84;100651.06;10510591;28;20036;-76
2023/03/16 04:46:28;;;;;;;3.42;1.25;;;;;;;-1.46;88.07;100661.00;10513399;28;20052;-75
2023/03/16 04:51:32;;;;;;;2.75;0.90;;;;;;;-1.44;87.84;100664.31;10517712;28;20044;-76
2023/03/16 04:56:44;;;;;;;3.63;1.08;;;;;;;-1.36;87.61;100666.84;10471475;28;20041;-78
2023/03/16 05:02:05;;;;;;;7.38;1.70;;;;;;;-0.97;87.10;100682.25;10478974;28;20048;-78
2023/03/16 05:07:08;;;;;;;4.00;1.00;;;;;;;-0.87;86.34;100693.44;10507149;28;20048;-79
2023/03/16 05:12:13;;;;;;;1.77;0.90;;;;;;;-0.96;86.54;100694.69;10502832;28;20060;-78
2023/03/16 05:17:30;;;;;;;2.40;1.33;;;;;;;-0.97;86.34;100707.31;10506935;28;20037;-78
2023/03/16 05:22:33;;;;;;;2.13;0.88;;;;;;;-0.97;86.41;100707.31;10524466;28;20037;-77
2023/03/16 05:27:53;;;;;;;4.07;1.20;;;;;;;-0.89;86.35;100724.31;10503273;28;20044;-78
2023/03/16 05:33:18;;;;;;;1.67;0.93;;;;;;;-0.92;86.04;100737.16;10478478;28;20060;-77
2023/03/16 05:38:26;;;;;;;2.00;1.02;;;;;;;-0.84;85.95;100746.09;10491440;28;20047;-77
2023/03/16 05:43:30;;;;;;;1.60;0.90;;;;;;;-0.89;85.62;100748.53;10507480;28;20381;-78
2023/03/16 05:48:34;;;;;;;2.28;1.05;;;;;;;-0.76;85.79;100764.75;10499284;28;20048;-77
2023/03/16 05:53:37;;;;;;;2.75;1.02;;;;;;;-0.73;85.30;100762.47;10486044;28;20414;-77
2023/03/16 05:58:52;;;;;;;3.60;1.10;;;;;;;-0.71;84.75;100767.66;10499153;28;20514;-77
2023/03/16 06:03:56;;;;;;;3.53;1.20;;;;;;;-0.59;84.26;100776.81;10500683;28;20041;-76
2023/03/16 06:09:01;;;;;;;3.80;1.30;;;;;;;-0.46;83.80;100782.22;10493411;28;20063;-78
2023/03/16 06:14:04;;;;;;;2.58;1.30;;;;;;;-0.01;82.72;100793.22;10481129;28;20067;-77
2023/03/16 06:19:07;;;;;;;4.13;1.08;;;;;;;0.04;81.40;100798.03;10493145;28;20066;-78
2023/03/16 06:24:09;;;;;;;1.80;1.00;;;;;;;0.23;80.70;100808.78;10523499;28;20043;-77
2023/03/16 06:29:12;;;;;;;4.20;0.90;;;;;;;0.04;80.08;100809.63;10504713;28;20052;-79
2023/03/16 06:34:16;;;;;;;1.48;0.90;;;;;;;0.20;80.05;100828.09;10488780;28;20036;-78
2023/03/16 06:39:18;;;;;;;2.10;0.80;;;;;;;0.35;79.26;100833.28;10492323;28;20060;-80
2023/03/16 06:44:24;;;;;;;1.55;0.90;;;;;;;0.36;78.56;100834.94;10488745;28;20044;-81
2023/03/16 06:49:37;;;;;;;1.33;0.70;;;;;;;0.65;77.78;100827.41;10495234;28;20040;-78
2023/03/16 06:54:46;;;;;;;4.85;0.95;;;;;;;1.58;75.83;100828.69;10498474;28;20055;-81
2023/03/16 06:59:50;;;;;;;6.68;1.38;;;;;;;1.91;73.87;100850.09;10494292;28;20056;-78
2023/03/16 07:04:52;;;;;;;1.88;1.02;;;;;;;1.83;72.90;100858.47;10502372;28;20041;-77
2023/03/16 07:09:55;;;;;;;2.30;1.10;;;;;;;2.25;71.72;100859.59;10514297;28;20055;-77
2023/03/16 07:14:57;;;;;;;2.20;0.90;;;;;;;2.37;71.21;100862.44;10529698;28;20055;-79
2023/03/16 07:20:04;;;;;;;1.25;0.90;;;;;;;2.96;70.09;100866.44;10511544;28;20383;-78
2023/03/16 07:25:07;;;;;;;4.72;1.20;;;;;;;4.60;64.82;100862.41;10516518;28;20040;-77
2023/03/16 07:30:13;;;;;;;3.72;1.10;;;;;;;5.57;61.61;100875.38;10500406;28;20044;-78
2023/03/16 07:35:16;;;;;;;2.13;1.17;;;;;;;6.18;59.27;100874.59;10540148;28;20411;-77
2023/03/16 07:40:20;;;;;;;1.48;1.00;;;;;;;6.61;57.51;100878.59;10558528;28;20050;-77
2023/03/16 07:45:22;;;;;;;2.20;1.35;;;;;;;7.04;55.20;100883.31;10576435;28;20040;-76
2023/03/16 07:50:24;;;;;;;4.85;1.30;;;;;;;7.18;55.08;100900.16;10541164;28;20055;-77
2023/03/16 07:55:28;;;;;;;2.50;1.10;;;;;;;7.22;53.99;100893.09;10557725;28;20048;-77
2023/03/16 08:00:32;;;;;;;2.72;1.33;;;;;;;7.48;52.28;100891.53;10551868;28;20037;-77
2023/03/16 08:05:34;;;;;;;2.97;1.17;;;;;;;7.46;52.18;100899.13;10474997;28;20537;-78
2023/03/16 08:10:41;;;;;;;3.30;1.73;;;;;;;7.86;51.38;100910.53;10490614;28;20517;-77
2023/03/16 08:16:00;;;;;;;1.95;1.20;;;;;;;8.11;49.71;100911.88;10489489;28;20051;-78
2023/03/16 08:21:09;;;;;;;2.65;1.10;;;;;;;8.29;49.33;100925.19;10489842;28;20045;-76
2023/03/16 08:26:11;;;;;;;2.33;1.20;;;;;;;7.95;49.65;100923.75;10493869;28;20044;-78
2023/03/16 08:31:14;;;;;;;2.88;1.00;;;;;;;8.04;48.26;100941.34;10473058;28;20052;-77
2023/03/16 08:36:21;;;;;;;;;;;;;;;7.48;49.13;100946.13;10473046;28;20451;-77
2023/03/16 08:41:27;;;;;;;0.82;0.73;;;;;;;7.17;49.34;100958.53;10472416;28;19947;-77
2023/03/16 08:46:30;;;;;;;2.15;0.80;;;;;;;7.48;48.87;100960.63;10472046;28;20037;-77
2023/03/16 08:51:34;;;;;;;1.55;0.77;;;;;;;7.68;48.79;100962.78;10472916;28;20453;-77
2023/03/16 08:56:37;;;;;;;2.55;0.85;;;;;;;7.25;49.31;100975.28;10489905;28;20052;-77
2023/03/16 09:01:40;;;;;;;1.00;0.60;;;;;;;6.71;48.42;100978.81;10490193;28;20049;-77
2023/03/16 09:06:42;;;;;;;0.60;0.50;;;;;;;6.14;48.53;100989.78;10489989;28;20052;-77
2023/03/16 09:11:45;;;;;;;0.60;0.38;;;;;;;4.88;51.26;101003.06;10489129;28;20068;-78
2023/03/16 09:16:47;;;;;;;1.25;0.80;;;;;;;3.89;53.47;101005.34;10503430;28;20043;-77
2023/03/16 09:21:53;;;;;;;2.50;0.60;;;;;;;3.39;54.35;101006.56;10528958;28;20040;-76
2023/03/16 09:26:56;;;;;;;0.70;0.70;;;;;;;3.21;53.25;101010.91;10528950;28;20044;-78
2023/03/16 09:32:24;;;;;;;0.93;0.50;;;;;;;3.26;53.47;101007.50;10527892;28;20040;-77
2023/03/16 09:37:30;;;;;;;1.15;0.60;;;;;;;3.33;53.32;101014.53;10511625;28;20037;-76
2023/03/16 09:42:36;;;;;;;2.92;0.88;;;;;;;3.34;53.22;101023.50;10529313;28;20036;-78
2023/03/16 09:47:39;;;;;;;2.00;0.70;;;;;;;3.03;53.46;101036.09;10494474;28;20041;-77
2023/03/16 09:53:09;;;;;;;0.80;0.40;;;;;;;2.79;53.36;101038.81;10492181;28;20048;-78
2023/03/16 09:58:16;;;;;;;1.58;0.90;;;;;;;2.70;54.01;101044.47;10469295;28;20037;-78
2023/03/16 10:03:25;;;;;;;2.50;0.70;;;;;;;2.64;53.77;101048.09;10469825;28;20044;-77
2023/03/16 10:08:37;;;;;;;1.20;0.50;;;;;;;2.52;55.30;101057.94;10486759;28;20047;-78
2023/03/16 10:13:54;;;;;;;0.93;0.50;;;;;;;2.53;55.84;101062.31;10472323;28;20037;-78
2023/03/16 10:19:19;;;;;;;0.87;0.60;;;;;;;2.31;57.19;101072.66;10469347;28;20041;-78
2023/03/16 10:24:40;;;;;;;1.58;0.93;;;;;;;2.15;58.80;101083.16;10469094;28;20060;-78
2023/03/16 10:29:42;;;;;;;2.95;0.80;;;;;;;1.97;58.48;101079.25;10486388;28;20047;-76
2023/03/16 10:34:52;;;;;;;0.70;0.43;;;;;;;1.81;58.73;101090.56;10486337;28;20045;-77
2023/03/16 10:40:19;;;;;;;3.45;0.77;;;;;;;1.82;60.57;101086.81;10489733;28;20048;-76
2023/03/16 10:45:25;;;;;;;1.98;0.55;;;;;;;1.78;61.04;101096.38;10496880;28;20049;-78
2023/03/16 10:50:28;;;;;;;0.63;0.60;;;;;;;1.71;59.92;101103.69;10470938;28;20045;-77
2023/03/16 10:55:33;;;;;;;0.93;0.40;;;;;;;1.63;59.43;101112.03;10499904;28;20044;-78
2023/03/16 11:00:41;;;;;;;0.30;0.30;;;;;;;1.59;59.79;101113.50;10479947;28;20051;-76
2023/03/16 11:05:43;;;;;;;1.75;0.35;;;;;;;1.61;61.24;101124.94;10517441;28;20506;-76
2023/03/16 11:10:56;;;;;;;3.30;0.80;;;;;;;1.58;61.17;101136.19;10524288;28;20053;-76
2023/03/16 11:16:29;;;;;;;0.93;0.43;;;;;;;1.42;60.28;101134.72;10523933;28;20409;-76
2023/03/16 11:21:50;;;;;;;0.47;0.40;;;;;;;1.30;61.81;101139.94;10513370;28;20410;-77
2023/03/16 11:26:55;;;;;;;0.93;0.70;;;;;;;1.15;62.36;101158.22;10537921;28;20425;-77
2023/03/16 11:32:02;;;;;;;1.33;0.60;;;;;;;1.23;62.15;101159.91;10519381;28;20144;-78
2023/03/16 11:37:15;;;;;;;0.47;0.47;;;;;;;1.28;61.66;101160.94;10518841;28;20044;-76
2023/03/16 11:42:41;;;;;;;1.45;0.68;;;;;;;1.33;59.80;101154.91;10515665;28;20037;-78
2023/03/16 11:48:06;;;;;;;0.73;0.63;;;;;;;1.35;58.49;101164.47;10516830;28;20036;-78
2023/03/16 11:53:24;;;;;;;1.88;0.47;;;;;;;1.43;55.76;101171.56;10506105;28;20036;-78
2023/03/16 11:58:34;;;;;;;0.90;0.55;;;;;;;1.33;55.29;101173.81;10504793;28;20048;-78
2023/03/16 12:03:57;;;;;;;0.90;0.50;;;;;;;1.35;54.07;101180.69;10526459;28;20040;-78
2023/03/16 12:09:15;;;;;;;0.65;0.50;;;;;;;1.42;54.72;101186.94;10515890;28;20059;-77
2023/03/16 12:14:27;;;;;;;0.60;0.40;;;;;;;1.35;56.38;101202.31;10513064;28;20536;-79
2023/03/16 12:19:41;;;;;;;0.93;0.52;;;;;;;1.21;59.25;101189.81;10503028;28;20134;-78
2023/03/16 12:24:44;;;;;;;1.17;0.40;;;;;;;1.12;59.05;101196.47;10523038;28;20528;-78
2023/03/16 12:30:41;;;;;;;0.55;0.30;;;;;;;1.07;59.50;101207.91;10503972;28;20041;-78
2023/03/16 12:36:02;;;;;;;0.75;0.55;;;;;;;1.10;59.21;101212.91;10486666;28;20068;-77
2023/03/16 12:41:10;;;;;;;0.80;0.43;;;;;;;1.12;58.39;101213.53;10519566;28;20032;-77
2023/03/16 12:46:14;;;;;;;;;;;;;;;1.18;57.87;101220.78;10497475;28;20040;-79
2023/03/16 12:51:18;;;;;;;0.30;0.30;;;;;;;1.16;57.17;101219.34;10498876;28;19926;-79
2023/03/16 12:56:47;;;;;;;0.65;0.35;;;;;;;1.15;55.69;101223.09;10519135;28;20036;-78
2023/03/16 13:01:59;;;;;;;1.17;0.40;;;;;;;1.06;54.38;101229.72;10515461;28;20052;-79
2023/03/16 13:07:17;;;;;;;0.63;0.40;;;;;;;1.08;52.83;101233.06;10494447;28;20056;-78
2023/03/16 13:12:36;;;;;;;0.43;0.30;;;;;;;0.99;51.06;101236.97;10498967;28;20052;-80
2023/03/16 13:17:38;;;;;;;1.00;0.30;;;;;;;0.88;50.92;101250.06;10483475;28;20036;-79
2023/03/16 13:22:44;;;;;;;0.57;0.43;;;;;;;0.82;51.61;101245.44;10509584;28;20032;-79
2023/03/16 13:27:48;;;;;;;0.85;0.50;;;;;;;0.81;52.76;101249.19;10480819;28;20048;-80
2023/03/16 13:32:55;;;;;;;1.00;0.60;;;;;;;1.16;53.34;101249.06;10497019;28;20047;-78
2023/03/16 13:38:04;;;;;;;1.30;0.60;;;;;;;0.98;52.77;101254.22;10498894;28;20045;-81
2023/03/16 13:43:14;;;;;;;0.57;0.50;;;;;;;0.90;54.55;101264.19;10468894;28;20049;-79
2023/03/16 13:48:18;;;;;;;1.27;0.90;;;;;;;0.76;55.83;101262.47;10490949;28;20540;-80
2023/03/16 13:53:23;;;;;;;1.40;0.60;;;;;;;0.72;57.87;101263.06;10511139;28;20036;-79
2023/03/16 13:58:32;;;;;;;0.63;0.50;;;;;;;0.74;58.70;101274.50;10510446;28;20067;-78
2023/03/16 14:03:37;;;;;;;2.97;0.80;;;;;;;0.71;59.89;101285.72;10482412;28;20481;-80
2023/03/16 14:08:41;;;;;;;2.30;0.60;;;;;;;0.69;60.29;101290.47;10492941;28;20040;-79
2023/03/16 14:13:50;;;;;;;2.97;0.57;;;;;;;0.69;60.93;101288.59;10510409;28;20043;-80
2023/03/16 14:19:23;;;;;;;1.05;0.60;;;;;;;0.57;60.75;101295.63;10504626;28;20033;-79
2023/03/16 14:24:34;;;;;;;2.28;0.60;;;;;;;0.42;60.94;101303.81;10503593;28;20134;-79
2023/03/16 14:29:36;;;;;;;1.65;0.40;;;;;;;0.29;60.99;101314.53;10502717;28;20436;-80
2023/03/16 14:34:39;;;;;;;2.03;0.77;;;;;;;0.22;62.07;101327.16;10525794;28;20040;-79
2023/03/16 14:39:42;;;;;;;1.92;0.57;;;;;;;0.26;61.98;101318.47;10523923;28;20448;-80
2023/03/16 14:44:45;;;;;;;1.02;0.47;;;;;;;0.16;63.27;101328.75;10496498;28;20044;-78
2023/03/16 14:49:47;;;;;;;2.17;0.60;;;;;;;0.08;63.61;101336.19;10527714;28;20067;-79
2023/03/16 14:54:51;;;;;;;0.52;0.52;;;;;;;0.06;64.66;101335.53;10476043;28;20500;-77
2023/03/16 14:59:53;;;;;;;0.68;0.50;;;;;;;0.02;65.51;101336.97;10525428;28;20040;-78
2023/03/16 15:04:56;;;;;;;1.58;0.90;;;;;;;-0.09;65.82;101343.72;10508139;28;20037;-77
2023/03/16 15:10:28;;;;;;;2.08;0.70;;;;;;;-0.14;66.14;101349.69;10492327;28;20505;-79
2023/03/16 15:15:31;;;;;;;2.55;0.68;;;;;;;-0.20;66.57;101353.16;10501985;28;20053;-78
2023/03/16 15:20:38;;;;;;;1.67;0.70;;;;;;;-0.24;67.25;101356.44;10500369;28;20044;-77
2023/03/16 15:25:46;;;;;;;2.08;0.52;;;;;;;-0.31;67.98;101361.78;10511271;28;20045;-78
2023/03/16 15:30:52;;;;;;;1.98;0.65;;;;;;;-0.44;68.50;101378.63;10510602;28;20580;-77
2023/03/16 15:35:57;;;;;;;1.08;0.70;;;;;;;-0.51;69.72;101382.28;10534307;28;20051;-78
2023/03/16 15:41:00;;;;;;;1.02;0.70;;;;;;;-0.58;70.48;101384.06;10531322;28;20052;-77
2023/03/16 15:46:03;;;;;;;1.27;0.70;;;;;;;-0.63;71.52;101387.34;10530525;28;20503;-78
2023/03/16 15:51:11;;;;;;;1.35;0.75;;;;;;;-0.73;72.40;101395.72;10518228;28;20045;-78
2023/03/16 15:56:16;;;;;;;3.57;0.93;;;;;;;-0.82;72.98;101412.19;10474604;28;20048;-78
2023/03/16 16:01:21;;;;;;;1.30;0.70;;;;;;;-0.88;73.67;101416.44;10501137;28;20415;-78
2023/03/16 16:06:23;;;;;;;0.88;0.70;;;;;;;-0.89;74.81;101425.53;10502845;28;20051;-77
2023/03/16 16:11:27;;;;;;;1.60;0.77;;;;;;;-1.02;75.02;101438.84;10513548;28;20053;-78
2023/03/16 16:16:30;;;;;;;1.85;0.80;;;;;;;-1.10;75.57;101444.31;10515040;28;20051;-79
2023/03/16 16:21:33;;;;;;;1.77;0.63;;;;;;;-1.18;76.14;101447.13;10502895;28;20437;-79
2023/03/16 16:26:49;;;;;;;1.55;0.63;;;;;;;-1.27;76.67;101449.88;10488652;28;20041;-78
2023/03/16 16:31:51;;;;;;;0.80;0.80;;;;;;;-1.29;77.21;101457.31;10491385;28;20041;-78
2023/03/16 16:36:54;;;;;;;1.38;0.77;;;;;;;-1.39;77.86;101463.94;10490782;28;20060;-77
2023/03/16 16:41:57;;;;;;;0.70;0.70;;;;;;;-1.46;78.65;101463.84;10490858;28;20040;-77
2023/03/16 16:46:59;;;;;;;0.80;0.80;;;;;;;-1.51;79.59;101477.03;10493630;28;20425;-78
2023/03/16 16:52:02;;;;;;;1.73;1.08;;;;;;;-1.58;80.60;101484.97;10518957;28;20047;-78
2023/03/16 16:57:05;;;;;;;3.08;0.65;;;;;;;-1.62;81.09;101485.53;10521310;28;20040;-78
2023/03/16 17:02:26;;;;;;;1.67;0.80;;;;;;;-1.67;81.76;101499.53;10511646;28;20051;-79
2023/03/16 17:07:28;;;;;;;2.10;1.35;;;;;;;-1.71;81.84;101498.22;10518510;28;20052;-80
2023/03/16 17:12:31;;;;;;;2.53;1.40;;;;;;;-1.73;82.53;101508.34;10524872;28;20044;-80
2023/03/16 17:17:38;;;;;;;1.60;1.30;;;;;;;-1.75;83.33;101512.19;10532067;28;20306;-77
2023/03/16 17:22:40;;;;;;;2.03;1.00;;;;;;;-1.77;83.79;101517.75;10525610;28;20045;-80
2023/03/16 17:27:46;;;;;;;2.97;1.17;;;;;;;-1.84;84.58;101528.41;10493740;28;20041;-80
2023/03/16 17:32:49;;;;;;;1.75;0.98;;;;;;;-1.92;84.85;101527.59;10526065;28;20502;-82
2023/03/16 17:37:53;;;;;;;2.00;1.38;;;;;;;-1.97;85.34;101535.38;10508849;28;20045;-83
2023/03/16 17:42:56;;;;;;;2.33;1.08;;;;;;;-2.07;86.68;101538.31;10500871;28;20044;-81
2023/03/16 17:48:04;;;;;;;2.10;1.40;;;;;;;-2.13;86.96;101537.13;10523735;28;20044;-81
2023/03/16 17:53:07;;;;;;;1.77;1.20;;;;;;;-2.17;87.97;101540.38;10528338;28;20050;-78
2023/03/16 17:58:28;;;;;;;2.63;1.33;;;;;;;-2.18;88.59;101544.91;10493392;28;20435;-80
2023/03/16 18:03:31;;;;;;;1.58;1.15;;;;;;;-1.68;89.40;101545.47;10509516;28;20408;-80
2023/03/16 18:08:34;;;;;;;2.95;1.70;;;;;;;-1.98;89.23;101561.44;10531360;28;20040;-78
2023/03/16 18:13:41;;;;;;;3.58;1.80;;;;;;;-2.10;89.40;101549.38;10528351;28;20048;-78
2023/03/16 18:18:48;;;;;;;2.50;1.40;;;;;;;-2.23;89.35;101563.41;10514660;28;20294;-80
2023/03/16 18:23:51;;;;;;;2.42;1.35;;;;;;;-2.31;89.13;101565.28;10531481;28;20051;-80
2023/03/16 18:28:54;;;;;;;3.00;1.73;;;;;;;-2.34;89.92;101574.53;10497001;28;20051;-79
2023/03/16 18:34:01;;;;;;;4.00;1.70;;;;;;;-2.43;90.41;101578.25;10514180;28;20493;-81
2023/03/16 18:39:06;;;;;;;2.67;1.83;;;;;;;-2.42;90.75;101584.50;10516093;28;20053;-79
2023/03/16 18:44:20;;;;;;;4.85;2.40;;;;;;;-2.37;90.91;101596.41;10510480;28;20224;-78
2023/03/16 18:49:31;;;;;;;2.85;1.80;;;;;;;-2.43;91.53;101594.38;10506308;28;20057;-80
2023/03/16 18:54:34;;;;;;;3.67;2.40;;;;;;;-2.51;91.24;101605.16;10510889;28;20410;-78
2023/03/16 18:59:36;;;;;;;2.92;1.77;;;;;;;-2.56;91.99;101604.84;10513765;28;20051;-81
2023/03/16 19:04:38;;;;;;;3.05;1.60;;;;;;;-2.59;91.87;101613.25;10514676;28;20040;-79
2023/03/16 19:09:41;;;;;;;4.53;2.25;;;;;;;-2.63;92.10;101615.44;10528316;28;20045;-81
2023/03/16 19:14:43;;;;;;;2.55;1.60;;;;;;;-2.66;92.44;101617.63;10504081;28;20510;-77
2023/03/16 19:19:46;;;;;;;2.97;1.90;;;;;;;-2.70;92.31;101635.94;10498200;28;20053;-78
2023/03/16 19:24:51;;;;;;;5.55;2.17;;;;;;;-2.72;92.95;101632.59;10518313;28;20071;-78
2023/03/16 19:29:54;;;;;;;3.35;1.98;;;;;;;-2.74;92.40;101648.88;10525053;28;20051;-78
2023/03/16 19:34:56;;;;;;;4.85;2.50;;;;;;;-2.30;93.32;101648.44;10513943;28;20122;-81
2023/03/16 19:39:59;;;;;;;5.30;2.08;;;;;;;-2.14;93.10;101655.63;10488994;28;20044;-78
2023/03/16 19:45:02;;;;;;;6.38;2.15;;;;;;;-2.06;92.27;101666.38;10497532;28;20055;-79
2023/03/16 19:50:13;;;;;;;3.10;2.33;;;;;;;-2.05;92.14;101669.91;10504817;28;20045;-79
2023/03/16 19:55:22;;;;;;;3.53;2.20;;;;;;;-2.06;91.46;101665.53;10503904;28;20048;-78
2023/03/16 20:00:25;;;;;;;3.78;2.60;;;;;;;-2.12;91.81;101678.63;10492159;28;21427;-79
2023/03/16 20:05:29;;;;;;;6.93;3.38;;;;;;;-2.19;91.18;101671.44;10523348;28;20048;-79
2023/03/16 20:10:31;;;;;;;5.20;2.83;;;;;;;-2.23;91.54;101683.56;10529659;28;20060;-79
2023/03/16 20:15:34;;;;;;;7.40;3.65;;;;;;;-2.29;90.91;101686.91;10487083;28;20041;-78
2023/03/16 20:20:36;;;;;;;3.42;2.30;;;;;;;-2.41;90.59;101682.94;10516451;28;20085;-79
2023/03/16 20:25:38;;;;;;;4.88;2.92;;;;;;;-2.50;89.88;101687.47;10506587;28;20047;-77
2023/03/16 20:30:40;;;;;;;5.65;2.55;;;;;;;-2.42;90.04;101692.84;10513268;28;20045;-80
2023/03/16 20:35:45;;;;;;;5.75;2.47;;;;;;;-2.31;89.13;101703.22;10489522;28;20052;-81
2023/03/16 20:40:51;;;;;;;6.78;3.13;;;;;;;-2.37;88.68;101703.91;10521335;28;20502;-79
2023/03/16 20:45:55;;;;;;;9.43;4.47;;;;;;;-2.42;88.64;101703.59;10491324;28;20044;-80
2023/03/16 20:50:59;;;;;;;10.70;4.78;;;;;;;-2.42;88.19;101719.72;10509241;28;20513;-79
2023/03/16 20:56:01;;;;;;;8.27;4.00;;;;;;;-2.52;88.48;101714.50;10530531;28;20564;-77
2023/03/16 21:01:04;;;;;;;15.25;4.85;;;;;;;-2.43;88.58;101728.75;10523220;28;20528;-77
2023/03/16 21:06:23;;;;;;;12.15;4.57;;;;;;;-2.42;88.41;101735.00;10514768;28;20040;-76
2023/03/16 21:11:32;;;;;;;5.78;2.90;;;;;;;-2.48;88.36;101734.66;10516182;28;20459;-80
2023/03/16 21:16:37;;;;;;;5.47;3.22;;;;;;;-2.55;88.31;101740.88;10521358;28;20048;-78
2023/03/16 21:21:40;;;;;;;7.68;3.78;;;;;;;-2.62;88.35;101745.22;10517544;28;20395;-78
2023/03/16 21:26:43;;;;;;;7.32;4.03;;;;;;;-2.60;88.63;101751.28;10518063;28;20403;-78
2023/03/16 21:31:47;;;;;;;8.27;4.30;;;;;;;-2.66;88.36;101746.56;10501785;28;20041;-80
2023/03/16 21:36:49;;;;;;;9.32;4.65;;;;;;;-2.63;88.56;101755.13;10497820;28;20044;-78
2023/03/16 21:41:52;;;;;;;9.98;4.82;;;;;;;-2.62;89.11;101758.66;10516061;28;20131;-78
2023/03/16 21:46:54;;;;;;;9.95;4.60;;;;;;;-2.65;89.01;101762.53;10500826;28;20044;-77
2023/03/16 21:51:56;;;;;;;7.53;4.22;;;;;;;-2.66;88.39;101766.22;10524077;28;20036;-80
2023/03/16 21:56:58;;;;;;;6.88;3.58;;;;;;;-2.70;88.66;101782.84;10516297;28;20382;-78
2023/03/16 22:02:01;;;;;;;5.38;3.38;;;;;;;-2.76;88.46;101779.81;10517560;28;20052;-82
2023/03/16 22:07:10;;;;;;;9.30;3.10;;;;;;;-2.69;88.91;101792.59;10499049;28;20489;-80
2023/03/16 22:12:12;;;;;;;5.25;2.80;;;;;;;-2.67;89.18;101791.41;10483246;28;20509;-81
2023/03/16 22:17:20;;;;;;;5.35;2.60;;;;;;;-2.66;88.89;101794.94;10500991;28;20040;-81
2023/03/16 22:22:22;;;;;;;;;;;;;;;-2.69;88.82;101798.78;10464004;28;20038;-79
2023/03/16 22:27:25;;;;;;;6.25;3.05;;;;;;;-2.66;89.27;101798.47;10512445;28;20282;-79
2023/03/16 22:32:27;;;;;;;7.22;3.75;;;;;;;-2.67;88.91;101791.41;10496512;28;20044;-79
2023/03/16 22:37:29;;;;;;;6.68;3.55;;;;;;;-2.64;89.02;101796.44;10479045;28;20048;-78
2023/03/16 22:42:37;;;;;;;6.55;3.20;;;;;;;-2.63;89.35;101800.81;10490020;28;20040;-78
2023/03/16 22:47:39;;;;;;;8.10;4.07;;;;;;;-2.70;89.47;101805.19;10481722;28;20060;-79
2023/03/16 22:52:41;;;;;;;10.13;4.88;;;;;;;-2.77;89.54;101810.38;10509076;28;20036;-78
2023/03/16 22:57:44;;;;;;;10.60;5.10;;;;;;;-2.84;89.28;101820.09;10515460;28;20391;-77
2023/03/16 23:02:48;;;;;;;8.75;4.40;;;;;;;-2.92;89.76;101824.63;10507957;28;20052;-78
2023/03/16 23:07:50;;;;;;;6.57;4.13;;;;;;;-2.85;89.89;101826.47;10503567;28;20051;-77
2023/03/16 23:12:53;;;;;;;9.82;4.47;;;;;;;-2.97;89.67;101835.81;10514222;28;20044;-77
2023/03/16 23:17:55;;;;;;;8.40;4.18;;;;;;;-2.99;90.04;101834.31;10515285;28;20036;-77
2023/03/16 23:22:57;;;;;;;8.32;4.28;;;;;;;-3.13;90.10;101839.28;10507953;28;20490;-77
2023/03/16 23:28:01;;;;;;;8.43;4.20;;;;;;;-3.11;90.47;101847.22;10510130;28;20060;-78
2023/03/16 23:33:03;;;;;;;6.97;3.95;;;;;;;-3.01;90.54;101847.91;10489281;28;20044;-79
2023/03/16 23:38:06;;;;;;;8.43;3.03;;;;;;;-2.87;90.30;101851.81;10513431;28;20036;-77